createdAt,value
2019-06-20T00:00:32.480Z,982.28
2019-06-20T00:01:32.490Z,982.33
2019-06-20T00:02:32.457Z,982.32
2019-06-20T00:03:32.445Z,982.35
2019-06-20T00:04:32.436Z,982.38
2019-06-20T00:05:32.425Z,982.38
2019-06-20T00:06:32.441Z,982.39
2019-06-20T00:07:32.401Z,982.36
2019-06-20T00:08:32.395Z,982.37
2019-06-20T00:09:32.380Z,982.37
2019-06-20T00:10:32.368Z,982.40
2019-06-20T00:11:32.381Z,982.36
2019-06-20T00:12:32.355Z,982.39
2019-06-20T00:13:32.338Z,982.40
2019-06-20T00:14:32.328Z,982.43
2019-06-20T00:15:32.347Z,982.42
2019-06-20T00:16:32.324Z,982.44
2019-06-20T00:17:32.292Z,982.40
2019-06-20T00:18:32.282Z,982.36
2019-06-20T00:19:32.296Z,982.33
2019-06-20T00:20:32.261Z,982.33
2019-06-20T00:21:32.272Z,982.30
2019-06-20T00:22:32.242Z,982.29
2019-06-20T00:23:32.230Z,982.28
2019-06-20T00:24:32.215Z,982.31
2019-06-20T00:25:32.205Z,982.32
2019-06-20T00:26:32.226Z,982.31
2019-06-20T00:27:32.184Z,982.31
2019-06-20T00:28:32.174Z,982.35
2019-06-20T00:29:32.161Z,982.33
2019-06-20T00:30:32.150Z,982.36
2019-06-20T00:31:32.163Z,982.35
2019-06-20T00:32:32.129Z,982.36
2019-06-20T00:33:32.130Z,982.34
2019-06-20T00:34:32.135Z,982.32
2019-06-20T00:35:32.097Z,982.33
2019-06-20T00:36:32.125Z,982.31
2019-06-20T00:37:32.075Z,982.30
2019-06-20T00:38:32.064Z,982.30
2019-06-20T00:39:32.055Z,982.28
2019-06-20T00:40:32.048Z,982.31
2019-06-20T00:41:32.033Z,982.31
2019-06-20T00:42:32.045Z,982.31
2019-06-20T00:43:32.009Z,982.29
2019-06-20T00:44:31.999Z,982.36
2019-06-20T00:45:31.988Z,982.31
2019-06-20T00:46:31.980Z,982.36
2019-06-20T00:47:31.992Z,982.30
2019-06-20T00:48:31.978Z,982.33
2019-06-20T00:49:31.945Z,982.34
2019-06-20T00:50:31.931Z,982.36
2019-06-20T00:51:31.923Z,982.40
2019-06-20T00:52:31.933Z,982.43
2019-06-20T00:53:31.901Z,982.41
2019-06-20T00:54:31.889Z,982.41
2019-06-20T00:55:31.880Z,982.42
2019-06-20T00:56:31.869Z,982.43
2019-06-20T00:57:31.878Z,982.45
2019-06-20T00:58:31.851Z,982.48
2019-06-20T00:59:31.836Z,982.45
2019-06-20T01:00:31.824Z,982.42
2019-06-20T01:01:31.816Z,982.44
2019-06-20T01:02:31.824Z,982.44
2019-06-20T01:03:31.793Z,982.41
2019-06-20T01:04:31.784Z,982.44
2019-06-20T01:05:31.770Z,982.49
2019-06-20T01:06:31.762Z,982.50
2019-06-20T01:07:31.769Z,982.45
2019-06-20T01:08:31.736Z,982.45
2019-06-20T01:09:31.770Z,982.48
2019-06-20T01:10:31.726Z,982.47
2019-06-20T01:11:31.707Z,982.48
2019-06-20T01:12:31.740Z,982.49
2019-06-20T01:13:34.104Z,982.51
2019-06-20T01:14:31.672Z,982.57
2019-06-20T01:15:31.663Z,982.57
2019-06-20T01:16:31.651Z,982.63
2019-06-20T01:17:31.694Z,982.62
2019-06-20T01:18:31.627Z,982.68
2019-06-20T01:19:31.617Z,982.65
2019-06-20T01:20:31.608Z,982.67
2019-06-20T01:21:31.595Z,982.65
2019-06-20T01:22:31.617Z,982.65
2019-06-20T01:23:31.585Z,982.66
2019-06-20T01:24:31.564Z,982.65
2019-06-20T01:25:31.553Z,982.67
2019-06-20T01:26:31.542Z,982.68
2019-06-20T01:27:31.553Z,982.64
2019-06-20T01:28:31.519Z,982.66
2019-06-20T01:29:31.509Z,982.72
2019-06-20T01:30:31.500Z,982.75
2019-06-20T01:31:31.515Z,982.73
2019-06-20T01:32:31.508Z,982.77
2019-06-20T01:33:31.464Z,982.77
2019-06-20T01:34:31.453Z,982.79
2019-06-20T01:35:31.448Z,982.87
2019-06-20T01:36:31.431Z,982.80
2019-06-20T01:37:31.454Z,982.82
2019-06-20T01:38:31.430Z,982.82
2019-06-20T01:39:31.400Z,982.77
2019-06-20T01:40:31.392Z,982.75
2019-06-20T01:41:31.375Z,982.79
2019-06-20T01:42:31.369Z,982.79
2019-06-20T01:43:31.375Z,982.82
2019-06-20T01:44:31.341Z,982.78
2019-06-20T01:45:31.330Z,982.80
2019-06-20T01:46:31.347Z,982.80
2019-06-20T01:47:31.311Z,982.80
2019-06-20T01:48:31.377Z,982.87
2019-06-20T01:49:31.289Z,982.81
2019-06-20T01:50:31.275Z,982.82
2019-06-20T01:51:31.268Z,982.78
2019-06-20T01:52:31.253Z,982.82
2019-06-20T01:53:31.264Z,982.78
2019-06-20T01:54:31.233Z,982.83
2019-06-20T01:55:31.270Z,982.75
2019-06-20T01:56:31.210Z,982.78
2019-06-20T01:57:31.196Z,982.77
2019-06-20T01:58:31.214Z,982.75
2019-06-20T01:59:31.176Z,982.75
2019-06-20T02:00:31.166Z,982.79
2019-06-20T02:01:31.156Z,982.80
2019-06-20T02:02:31.142Z,982.81
2019-06-20T02:03:31.154Z,982.80
2019-06-20T02:04:31.119Z,982.81
2019-06-20T02:05:31.109Z,982.85
2019-06-20T02:06:31.097Z,982.84
2019-06-20T02:07:31.084Z,982.85
2019-06-20T02:08:31.098Z,982.88
2019-06-20T02:09:31.064Z,982.80
2019-06-20T02:10:31.063Z,982.82
2019-06-20T02:11:31.040Z,982.85
2019-06-20T02:12:31.034Z,982.84
2019-06-20T02:13:31.046Z,982.83
2019-06-20T02:14:31.010Z,982.91
2019-06-20T02:15:31.001Z,982.83
2019-06-20T02:16:30.988Z,982.84
2019-06-20T02:17:30.979Z,982.86
2019-06-20T02:18:30.995Z,982.87
2019-06-20T02:19:30.955Z,982.85
2019-06-20T02:20:30.963Z,982.83
2019-06-20T02:21:30.955Z,982.82
2019-06-20T02:22:30.919Z,982.84
2019-06-20T02:23:30.931Z,982.89
2019-06-20T02:24:30.915Z,982.89
2019-06-20T02:25:30.893Z,982.92
2019-06-20T02:26:30.878Z,982.91
2019-06-20T02:27:30.867Z,982.91
2019-06-20T02:28:30.877Z,982.91
2019-06-20T02:29:30.847Z,982.94
2019-06-20T02:30:30.833Z,982.91
2019-06-20T02:31:30.822Z,982.91
2019-06-20T02:32:30.820Z,982.90
2019-06-20T02:33:30.844Z,982.92
2019-06-20T02:34:30.791Z,982.90
2019-06-20T02:35:30.776Z,982.94
2019-06-20T02:36:30.766Z,982.93
2019-06-20T02:37:30.756Z,982.91
2019-06-20T02:38:30.749Z,982.91
2019-06-20T02:39:30.753Z,982.92
2019-06-20T02:40:30.769Z,982.95
2019-06-20T02:41:30.709Z,982.95
2019-06-20T02:42:30.787Z,982.97
2019-06-20T02:43:30.688Z,982.97
2019-06-20T02:44:31.121Z,982.96
2019-06-20T02:45:30.663Z,982.99
2019-06-20T02:46:30.655Z,982.98
2019-06-20T02:47:30.644Z,982.96
2019-06-20T02:48:30.653Z,982.93
2019-06-20T02:49:30.644Z,982.93
2019-06-20T02:50:30.610Z,982.88
2019-06-20T02:51:30.598Z,982.92
2019-06-20T02:52:30.592Z,982.90
2019-06-20T02:53:30.575Z,983.00
2019-06-20T02:54:30.586Z,982.94
2019-06-20T02:55:30.552Z,982.94
2019-06-20T02:56:30.548Z,982.91
2019-06-20T02:57:30.535Z,982.94
2019-06-20T02:58:30.520Z,982.91
2019-06-20T02:59:30.535Z,982.92
2019-06-20T03:00:30.503Z,982.96
2019-06-20T03:01:30.488Z,983.00
2019-06-20T03:02:30.477Z,983.03
2019-06-20T03:03:30.463Z,982.98
2019-06-20T03:04:30.480Z,982.97
2019-06-20T03:05:30.450Z,982.94
2019-06-20T03:06:30.435Z,983.01
2019-06-20T03:07:30.422Z,983.05
2019-06-20T03:08:30.410Z,983.06
2019-06-20T03:09:30.446Z,983.08
2019-06-20T03:10:30.511Z,983.11
2019-06-20T03:11:30.381Z,983.16
2019-06-20T03:12:30.362Z,983.14
2019-06-20T03:13:30.361Z,983.20
2019-06-20T03:14:44.539Z,983.26
2019-06-20T03:15:31.329Z,983.23
2019-06-20T03:16:30.324Z,983.26
2019-06-20T03:17:30.320Z,983.27
2019-06-20T03:18:30.298Z,983.29
2019-06-20T03:19:30.308Z,983.29
2019-06-20T03:20:30.276Z,983.25
2019-06-20T03:21:30.267Z,983.27
2019-06-20T03:22:30.279Z,983.20
2019-06-20T03:23:30.239Z,983.22
2019-06-20T03:24:30.265Z,983.23
2019-06-20T03:25:30.234Z,983.25
2019-06-20T03:26:30.207Z,983.26
2019-06-20T03:27:30.197Z,983.27
2019-06-20T03:28:30.186Z,983.27
2019-06-20T03:29:30.189Z,983.39
2019-06-20T03:30:30.187Z,983.38
2019-06-20T03:31:30.153Z,983.38
2019-06-20T03:32:30.141Z,983.42
2019-06-20T03:33:30.130Z,983.45
2019-06-20T03:34:30.117Z,983.44
2019-06-20T03:35:30.135Z,983.45
2019-06-20T03:36:30.095Z,983.45
2019-06-20T03:37:30.083Z,983.44
2019-06-20T03:38:30.073Z,983.48
2019-06-20T03:39:30.064Z,983.55
2019-06-20T03:40:30.085Z,983.54
2019-06-20T03:41:30.052Z,983.57
2019-06-20T03:42:30.034Z,983.60
2019-06-20T03:43:30.018Z,983.57
2019-06-20T03:44:30.009Z,983.58
2019-06-20T03:45:30.018Z,983.58
2019-06-20T03:46:29.991Z,983.59
2019-06-20T03:47:29.981Z,983.60
2019-06-20T03:48:29.960Z,983.65
2019-06-20T03:49:29.954Z,983.64
2019-06-20T03:50:29.962Z,983.64
2019-06-20T03:51:29.932Z,983.70
2019-06-20T03:52:29.925Z,983.72
2019-06-20T03:53:29.905Z,983.67
2019-06-20T03:54:29.912Z,983.69
2019-06-20T03:55:29.906Z,983.74
2019-06-20T03:56:29.882Z,983.70
2019-06-20T03:57:29.861Z,983.72
2019-06-20T03:58:29.854Z,983.69
2019-06-20T03:59:29.884Z,983.71
2019-06-20T04:00:29.856Z,983.67
2019-06-20T04:01:29.841Z,983.71
2019-06-20T04:02:29.805Z,983.73
2019-06-20T04:03:29.796Z,983.73
2019-06-20T04:04:29.803Z,983.72
2019-06-20T04:05:29.794Z,983.76
2019-06-20T04:06:29.770Z,983.82
2019-06-20T04:07:29.768Z,983.83
2019-06-20T04:08:29.742Z,983.82
2019-06-20T04:09:29.728Z,983.83
2019-06-20T04:10:29.742Z,983.84
2019-06-20T04:11:29.713Z,983.83
2019-06-20T04:12:29.709Z,983.86
2019-06-20T04:13:29.687Z,983.89
2019-06-20T04:14:29.677Z,983.86
2019-06-20T04:15:29.698Z,983.87
2019-06-20T04:16:29.661Z,983.87
2019-06-20T04:17:29.645Z,983.88
2019-06-20T04:18:29.629Z,983.86
2019-06-20T04:19:29.617Z,983.88
2019-06-20T04:20:29.612Z,983.86
2019-06-20T04:21:29.621Z,983.90
2019-06-20T04:22:29.590Z,983.87
2019-06-20T04:23:29.612Z,983.95
2019-06-20T04:24:29.568Z,983.93
2019-06-20T04:25:29.554Z,983.93
2019-06-20T04:26:29.567Z,983.96
2019-06-20T04:27:29.533Z,983.96
2019-06-20T04:28:29.520Z,984.01
2019-06-20T04:29:29.512Z,983.98
2019-06-20T04:30:29.546Z,984.00
2019-06-20T04:31:29.514Z,984.03
2019-06-20T04:32:29.501Z,984.06
2019-06-20T04:33:29.471Z,984.09
2019-06-20T04:34:29.456Z,984.05
2019-06-20T04:35:29.443Z,984.11
2019-06-20T04:36:29.464Z,984.07
2019-06-20T04:37:29.422Z,984.08
2019-06-20T04:38:29.412Z,984.14
2019-06-20T04:39:29.424Z,984.14
2019-06-20T04:40:29.389Z,984.17
2019-06-20T04:41:29.402Z,984.14
2019-06-20T04:42:29.380Z,984.17
2019-06-20T04:43:29.357Z,984.20
2019-06-20T04:44:29.348Z,984.17
2019-06-20T04:45:35.085Z,984.12
2019-06-20T04:46:30.348Z,984.11
2019-06-20T04:47:29.314Z,984.10
2019-06-20T04:48:29.304Z,984.09
2019-06-20T04:49:29.291Z,984.11
2019-06-20T04:50:29.284Z,984.09
2019-06-20T04:51:29.292Z,984.08
2019-06-20T04:52:29.260Z,984.09
2019-06-20T04:53:29.247Z,984.05
2019-06-20T04:54:29.245Z,984.06
2019-06-20T04:55:29.225Z,984.09
2019-06-20T04:56:29.249Z,984.03
2019-06-20T04:57:29.224Z,984.04
2019-06-20T04:58:29.194Z,984.07
2019-06-20T04:59:29.195Z,984.04
2019-06-20T05:00:29.185Z,984.08
2019-06-20T05:01:29.168Z,984.08
2019-06-20T05:02:29.178Z,984.07
2019-06-20T05:03:29.157Z,984.04
2019-06-20T05:04:29.130Z,984.09
2019-06-20T05:05:29.117Z,984.09
2019-06-20T05:06:29.108Z,984.12
2019-06-20T05:07:29.119Z,984.13
2019-06-20T05:08:29.085Z,984.08
2019-06-20T05:09:29.085Z,984.13
2019-06-20T05:10:29.063Z,984.13
2019-06-20T05:11:29.054Z,984.14
2019-06-20T05:12:29.067Z,984.15
2019-06-20T05:13:29.075Z,984.14
2019-06-20T05:14:29.017Z,984.19
2019-06-20T05:15:29.008Z,984.13
2019-06-20T05:16:28.998Z,984.21
2019-06-20T05:17:29.017Z,984.24
2019-06-20T05:18:28.978Z,984.21
2019-06-20T05:19:28.967Z,984.24
2019-06-20T05:20:28.961Z,984.24
2019-06-20T05:21:28.944Z,984.26
2019-06-20T05:22:28.957Z,984.27
2019-06-20T05:23:28.933Z,984.26
2019-06-20T05:24:28.912Z,984.30
2019-06-20T05:25:28.901Z,984.23
2019-06-20T05:26:28.889Z,984.26
2019-06-20T05:27:28.913Z,984.25
2019-06-20T05:28:28.866Z,984.25
2019-06-20T05:29:28.856Z,984.19
2019-06-20T05:30:28.930Z,984.25
2019-06-20T05:31:28.834Z,984.22
2019-06-20T05:32:28.846Z,984.28
2019-06-20T05:33:28.813Z,984.28
2019-06-20T05:34:28.810Z,984.27
2019-06-20T05:35:28.796Z,984.28
2019-06-20T05:36:28.798Z,984.33
2019-06-20T05:37:28.790Z,984.31
2019-06-20T05:38:28.759Z,984.29
2019-06-20T05:39:28.746Z,984.34
2019-06-20T05:40:28.757Z,984.38
2019-06-20T05:41:28.725Z,984.38
2019-06-20T05:42:28.839Z,984.36
2019-06-20T05:43:28.702Z,984.43
2019-06-20T05:44:28.736Z,984.41
2019-06-20T05:45:28.680Z,984.41
2019-06-20T05:46:29.593Z,984.46
2019-06-20T05:47:28.658Z,984.45
2019-06-20T05:48:28.671Z,984.44
2019-06-20T05:49:28.638Z,984.39
2019-06-20T05:50:28.627Z,984.34
2019-06-20T05:51:28.619Z,984.39
2019-06-20T05:52:28.604Z,984.38
2019-06-20T05:53:28.957Z,984.40
2019-06-20T05:54:28.578Z,984.41
2019-06-20T05:55:28.568Z,984.40
2019-06-20T05:56:28.574Z,984.39
2019-06-20T05:57:28.550Z,984.38
2019-06-20T05:58:28.558Z,984.36
2019-06-20T05:59:28.525Z,984.38
2019-06-20T06:00:28.517Z,984.41
2019-06-20T06:01:29.326Z,984.49
2019-06-20T06:02:28.492Z,984.50
2019-06-20T06:03:28.504Z,984.45
2019-06-20T06:04:28.474Z,984.46
2019-06-20T06:05:28.459Z,984.45
2019-06-20T06:06:28.451Z,984.51
2019-06-20T06:07:28.441Z,984.49
2019-06-20T06:08:28.453Z,984.52
2019-06-20T06:09:28.416Z,984.52
2019-06-20T06:10:28.405Z,984.57
2019-06-20T06:11:28.393Z,984.55
2019-06-20T06:12:28.380Z,984.55
2019-06-20T06:13:28.394Z,984.53
2019-06-20T06:14:28.360Z,984.50
2019-06-20T06:15:28.349Z,984.47
2019-06-20T06:16:28.514Z,984.43
2019-06-20T06:17:28.327Z,984.46
2019-06-20T06:18:28.337Z,984.44
2019-06-20T06:19:28.314Z,984.47
2019-06-20T06:20:28.315Z,984.44
2019-06-20T06:21:28.285Z,984.45
2019-06-20T06:22:28.272Z,984.43
2019-06-20T06:23:28.290Z,984.45
2019-06-20T06:24:28.247Z,984.46
2019-06-20T06:25:28.245Z,984.49
2019-06-20T06:26:28.227Z,984.49
2019-06-20T06:27:28.217Z,984.50
2019-06-20T06:28:28.227Z,984.50
2019-06-20T06:29:28.202Z,984.49
2019-06-20T06:30:28.183Z,984.50
2019-06-20T06:31:28.172Z,984.53
2019-06-20T06:32:39.598Z,984.53
2019-06-20T06:33:29.172Z,984.48
2019-06-20T06:34:28.140Z,984.54
2019-06-20T06:35:28.131Z,984.55
2019-06-20T06:36:28.116Z,984.55
2019-06-20T06:37:28.107Z,984.56
2019-06-20T06:38:28.132Z,984.55
2019-06-20T06:39:28.084Z,984.57
2019-06-20T06:40:28.084Z,984.46
2019-06-20T06:41:28.060Z,984.49
2019-06-20T06:42:28.050Z,984.52
2019-06-20T06:43:28.040Z,984.51
2019-06-20T06:44:31.602Z,984.49
2019-06-20T06:45:28.018Z,984.47
2019-06-20T06:46:42.859Z,984.46
2019-06-20T06:47:28.994Z,984.48
2019-06-20T06:48:27.987Z,984.48
2019-06-20T06:49:28.042Z,984.48
2019-06-20T06:50:27.962Z,984.48
2019-06-20T06:51:27.951Z,984.52
2019-06-20T06:52:27.939Z,984.50
2019-06-20T06:53:27.931Z,984.53
2019-06-20T06:54:27.944Z,984.50
2019-06-20T06:55:28.076Z,984.52
2019-06-20T06:56:27.895Z,984.49
2019-06-20T06:57:27.905Z,984.46
2019-06-20T06:58:27.880Z,984.49
2019-06-20T06:59:27.887Z,984.52
2019-06-20T07:00:27.852Z,984.48
2019-06-20T07:01:27.841Z,984.50
2019-06-20T07:02:27.839Z,984.54
2019-06-20T07:03:27.828Z,984.49
2019-06-20T07:04:27.832Z,984.51
2019-06-20T07:05:27.800Z,984.52
2019-06-20T07:06:27.794Z,984.54
2019-06-20T07:07:27.778Z,984.53
2019-06-20T07:08:27.764Z,984.60
2019-06-20T07:09:27.777Z,984.56
2019-06-20T07:10:27.745Z,984.56
2019-06-20T07:11:27.730Z,984.58
2019-06-20T07:12:27.720Z,984.56
2019-06-20T07:13:27.711Z,984.53
2019-06-20T07:14:27.734Z,984.59
2019-06-20T07:15:27.706Z,984.53
2019-06-20T07:16:27.680Z,984.57
2019-06-20T07:17:27.670Z,984.55
2019-06-20T07:18:27.655Z,984.51
2019-06-20T07:19:27.696Z,984.58
2019-06-20T07:20:27.636Z,984.55
2019-06-20T07:21:27.626Z,984.58
2019-06-20T07:22:27.610Z,984.59
2019-06-20T07:23:27.601Z,984.57
2019-06-20T07:24:27.612Z,984.56
2019-06-20T07:25:27.581Z,984.56
2019-06-20T07:26:27.570Z,984.60
2019-06-20T07:27:27.561Z,984.50
2019-06-20T07:28:27.555Z,984.55
2019-06-20T07:29:27.560Z,984.53
2019-06-20T07:30:27.526Z,984.55
2019-06-20T07:31:27.517Z,984.54
2019-06-20T07:32:27.509Z,984.51
2019-06-20T07:33:27.494Z,984.52
2019-06-20T07:34:27.528Z,984.46
2019-06-20T07:35:27.479Z,984.49
2019-06-20T07:36:27.463Z,984.47
2019-06-20T07:37:27.452Z,984.46
2019-06-20T07:38:27.443Z,984.53
2019-06-20T07:39:27.429Z,984.53
2019-06-20T07:40:27.440Z,984.50
2019-06-20T07:41:27.409Z,984.57
2019-06-20T07:42:27.403Z,984.53
2019-06-20T07:43:27.388Z,984.53
2019-06-20T07:44:27.385Z,984.55
2019-06-20T07:45:27.750Z,984.58
2019-06-20T07:46:27.360Z,984.59
2019-06-20T07:47:27.343Z,984.54
2019-06-20T07:48:27.335Z,984.56
2019-06-20T07:49:27.329Z,984.57
2019-06-20T07:50:27.338Z,984.55
2019-06-20T07:51:27.310Z,984.55
2019-06-20T07:52:27.293Z,984.52
2019-06-20T07:53:27.282Z,984.57
2019-06-20T07:54:27.276Z,984.55
2019-06-20T07:55:27.285Z,984.51
2019-06-20T07:56:27.250Z,984.55
2019-06-20T07:57:27.242Z,984.56
2019-06-20T07:58:27.227Z,984.54
2019-06-20T07:59:27.217Z,984.55
2019-06-20T08:00:27.230Z,984.60
2019-06-20T08:01:27.194Z,984.57
2019-06-20T08:02:27.184Z,984.60
2019-06-20T08:03:27.176Z,984.60
2019-06-20T08:04:27.177Z,984.61
2019-06-20T08:05:27.177Z,984.61
2019-06-20T08:06:27.145Z,984.62
2019-06-20T08:07:27.142Z,984.65
2019-06-20T08:08:27.120Z,984.60
2019-06-20T08:09:43.864Z,984.57
2019-06-20T08:10:28.140Z,984.62
2019-06-20T08:11:27.091Z,984.59
2019-06-20T08:12:27.084Z,984.59
2019-06-20T08:13:27.067Z,984.62
2019-06-20T08:14:27.058Z,984.60
2019-06-20T08:15:27.071Z,984.62
2019-06-20T08:16:27.038Z,984.61
2019-06-20T08:17:35.301Z,984.60
2019-06-20T08:18:28.012Z,984.58
2019-06-20T08:19:27.002Z,984.57
2019-06-20T08:20:27.017Z,984.63
2019-06-20T08:21:26.984Z,984.58
2019-06-20T08:22:26.972Z,984.57
2019-06-20T08:23:26.968Z,984.57
2019-06-20T08:24:26.948Z,984.64
2019-06-20T08:25:26.965Z,984.61
2019-06-20T08:26:26.932Z,984.65
2019-06-20T08:27:26.918Z,984.58
2019-06-20T08:28:26.906Z,984.57
2019-06-20T08:29:26.899Z,984.63
2019-06-20T08:30:26.914Z,984.67
2019-06-20T08:31:26.875Z,984.66
2019-06-20T08:32:26.864Z,984.67
2019-06-20T08:33:26.853Z,984.63
2019-06-20T08:34:26.855Z,984.65
2019-06-20T08:35:26.910Z,984.65
2019-06-20T08:36:26.824Z,984.68
2019-06-20T08:37:26.811Z,984.67
2019-06-20T08:38:26.803Z,984.68
2019-06-20T08:39:29.308Z,984.63
2019-06-20T08:40:26.779Z,984.74
2019-06-20T08:41:26.792Z,984.70
2019-06-20T08:42:26.765Z,984.70
2019-06-20T08:43:26.747Z,984.70
2019-06-20T08:44:26.738Z,984.70
2019-06-20T08:45:26.727Z,984.76
2019-06-20T08:46:26.738Z,984.75
2019-06-20T08:47:26.705Z,984.76
2019-06-20T08:48:26.693Z,984.73
2019-06-20T08:49:26.685Z,984.76
2019-06-20T08:50:26.672Z,984.80
2019-06-20T08:51:26.703Z,984.72
2019-06-20T08:52:26.651Z,984.70
2019-06-20T08:53:26.664Z,984.72
2019-06-20T08:54:26.630Z,984.74
2019-06-20T08:55:26.623Z,984.81
2019-06-20T08:56:26.629Z,984.79
2019-06-20T08:57:26.598Z,984.75
2019-06-20T08:58:26.587Z,984.75
2019-06-20T08:59:26.578Z,984.76
2019-06-20T09:00:26.567Z,984.76
2019-06-20T09:01:26.613Z,984.78
2019-06-20T09:02:26.546Z,984.78
2019-06-20T09:03:26.535Z,984.75
2019-06-20T09:04:26.529Z,984.76
2019-06-20T09:05:26.515Z,984.75
2019-06-20T09:06:26.528Z,984.74
2019-06-20T09:07:26.504Z,984.78
2019-06-20T09:08:26.501Z,984.78
2019-06-20T09:09:26.471Z,984.76
2019-06-20T09:10:26.483Z,984.75
2019-06-20T09:11:26.477Z,984.74
2019-06-20T09:12:26.439Z,984.76
2019-06-20T09:13:26.430Z,984.76
2019-06-20T09:14:26.418Z,984.72
2019-06-20T09:15:26.407Z,984.76
2019-06-20T09:16:26.428Z,984.78
2019-06-20T09:17:26.386Z,984.73
2019-06-20T09:18:26.376Z,984.73
2019-06-20T09:19:26.368Z,984.84
2019-06-20T09:20:26.356Z,984.83
2019-06-20T09:21:26.344Z,984.80
2019-06-20T09:22:26.358Z,984.79
2019-06-20T09:23:26.324Z,984.75
2019-06-20T09:24:26.319Z,984.77
2019-06-20T09:25:26.301Z,984.74
2019-06-20T09:26:26.293Z,984.73
2019-06-20T09:27:26.305Z,984.71
2019-06-20T09:28:26.271Z,984.74
2019-06-20T09:29:38.327Z,984.72
2019-06-20T09:30:27.249Z,984.76
2019-06-20T09:31:26.241Z,984.80
2019-06-20T09:32:26.268Z,984.79
2019-06-20T09:33:26.218Z,984.72
2019-06-20T09:34:26.212Z,984.71
2019-06-20T09:35:26.199Z,984.73
2019-06-20T09:36:26.189Z,984.64
2019-06-20T09:37:26.203Z,984.65
2019-06-20T09:38:26.170Z,984.67
2019-06-20T09:39:26.158Z,984.68
2019-06-20T09:40:26.152Z,984.68
2019-06-20T09:41:26.134Z,984.71
2019-06-20T09:42:26.149Z,984.73
2019-06-20T09:43:27.877Z,984.66
2019-06-20T09:44:26.103Z,984.67
2019-06-20T09:45:26.099Z,984.66
2019-06-20T09:46:26.086Z,984.75
2019-06-20T09:47:26.095Z,984.79
2019-06-20T09:48:26.063Z,984.79
2019-06-20T09:49:26.052Z,984.77
2019-06-20T09:50:26.044Z,984.75
2019-06-20T09:51:26.031Z,984.77
2019-06-20T09:52:26.045Z,984.79
2019-06-20T09:53:26.015Z,984.78
2019-06-20T09:54:26.000Z,984.76
2019-06-20T09:55:25.992Z,984.88
2019-06-20T09:56:25.980Z,984.83
2019-06-20T09:57:25.991Z,984.86
2019-06-20T09:58:25.970Z,984.89
2019-06-20T09:59:27.873Z,984.90
2019-06-20T10:00:25.941Z,984.87
2019-06-20T10:01:25.929Z,984.79
2019-06-20T10:02:25.941Z,984.82
2019-06-20T10:03:25.911Z,984.76
2019-06-20T10:04:25.898Z,984.85
2019-06-20T10:05:25.895Z,984.79
2019-06-20T10:06:25.878Z,984.85
2019-06-20T10:07:25.890Z,984.81
2019-06-20T10:08:25.865Z,984.90
2019-06-20T10:09:25.846Z,984.90
2019-06-20T10:10:25.836Z,984.82
2019-06-20T10:11:25.829Z,984.89
2019-06-20T10:12:25.815Z,984.93
2019-06-20T10:13:25.828Z,984.90
2019-06-20T10:14:25.813Z,984.93
2019-06-20T10:15:25.783Z,984.90
2019-06-20T10:16:25.774Z,984.87
2019-06-20T10:17:25.765Z,984.91
2019-06-20T10:18:25.775Z,984.91
2019-06-20T10:19:25.743Z,984.93
2019-06-20T10:20:25.736Z,984.91
2019-06-20T10:21:25.721Z,984.91
2019-06-20T10:22:25.710Z,984.82
2019-06-20T10:23:25.721Z,984.86
2019-06-20T10:24:25.690Z,984.86
2019-06-20T10:25:25.684Z,984.87
2019-06-20T10:26:25.668Z,984.89
2019-06-20T10:27:25.658Z,984.88
2019-06-20T10:28:25.671Z,984.88
2019-06-20T10:29:25.636Z,984.90
2019-06-20T10:30:25.628Z,984.91
2019-06-20T10:31:25.616Z,984.94
2019-06-20T10:32:25.608Z,985.00
2019-06-20T10:33:25.618Z,984.93
2019-06-20T10:34:25.584Z,984.94
2019-06-20T10:35:25.575Z,984.97
2019-06-20T10:36:25.568Z,984.96
2019-06-20T10:37:25.553Z,984.94
2019-06-20T10:38:25.565Z,985.01
2019-06-20T10:39:25.532Z,984.99
2019-06-20T10:40:25.522Z,985.04
2019-06-20T10:41:25.513Z,984.94
2019-06-20T10:42:25.510Z,985.01
2019-06-20T10:43:25.513Z,984.97
2019-06-20T10:44:25.494Z,985.00
2019-06-20T10:45:25.471Z,984.97
2019-06-20T10:46:25.459Z,984.97
2019-06-20T10:47:33.708Z,985.00
2019-06-20T10:48:26.472Z,984.96
2019-06-20T10:49:25.427Z,984.97
2019-06-20T10:50:25.428Z,985.02
2019-06-20T10:51:25.409Z,985.04
2019-06-20T10:52:25.397Z,985.08
2019-06-20T10:53:25.410Z,985.08
2019-06-20T10:54:25.374Z,985.14
2019-06-20T10:55:25.372Z,985.12
2019-06-20T10:56:25.356Z,985.09
2019-06-20T10:57:25.351Z,985.13
2019-06-20T10:58:25.355Z,985.11
2019-06-20T10:59:25.322Z,985.15
2019-06-20T11:00:32.092Z,985.14
2019-06-20T11:01:26.301Z,985.09
2019-06-20T11:02:25.298Z,985.15
2019-06-20T11:03:25.347Z,985.10
2019-06-20T11:04:25.268Z,985.13
2019-06-20T11:05:25.259Z,985.16
2019-06-20T11:06:25.249Z,985.15
2019-06-20T11:07:25.238Z,985.18
2019-06-20T11:08:25.228Z,985.18
2019-06-20T11:09:25.252Z,985.20
2019-06-20T11:10:25.210Z,985.18
2019-06-20T11:11:25.194Z,985.17
2019-06-20T11:12:25.194Z,985.18
2019-06-20T11:13:25.178Z,985.18
2019-06-20T11:14:25.226Z,985.13
2019-06-20T11:15:25.152Z,985.14
2019-06-20T11:16:25.152Z,985.09
2019-06-20T11:17:25.138Z,985.07
2019-06-20T11:18:25.123Z,985.08
2019-06-20T11:19:25.134Z,985.07
2019-06-20T11:20:25.102Z,984.98
2019-06-20T11:21:25.091Z,984.98
2019-06-20T11:22:25.080Z,985.02
2019-06-20T11:23:25.074Z,984.99
2019-06-20T11:24:25.094Z,984.99
2019-06-20T11:25:25.049Z,985.05
2019-06-20T11:26:25.053Z,985.04
2019-06-20T11:27:25.031Z,984.98
2019-06-20T11:28:25.021Z,984.95
2019-06-20T11:29:25.034Z,984.93
2019-06-20T11:30:25.010Z,984.94
2019-06-20T11:31:25.002Z,985.00
2019-06-20T11:32:24.977Z,985.01
2019-06-20T11:33:24.968Z,985.05
2019-06-20T11:34:24.983Z,985.05
2019-06-20T11:35:24.945Z,985.04
2019-06-20T11:36:24.936Z,985.03
2019-06-20T11:37:24.929Z,985.07
2019-06-20T11:38:24.916Z,984.96
2019-06-20T11:39:24.931Z,984.99
2019-06-20T11:40:24.896Z,984.99
2019-06-20T11:41:24.886Z,984.95
2019-06-20T11:42:24.873Z,985.03
2019-06-20T11:43:24.864Z,984.95
2019-06-20T11:44:24.877Z,984.94
2019-06-20T11:45:24.843Z,984.88
2019-06-20T11:46:24.833Z,984.87
2019-06-20T11:47:24.821Z,984.86
2019-06-20T11:48:24.811Z,984.89
2019-06-20T11:49:24.824Z,984.89
2019-06-20T11:50:24.788Z,984.83
2019-06-20T11:51:24.779Z,984.85
2019-06-20T11:52:24.771Z,984.85
2019-06-20T11:53:24.759Z,984.83
2019-06-20T11:54:24.787Z,984.81
2019-06-20T11:55:24.744Z,984.78
2019-06-20T11:56:24.729Z,984.76
2019-06-20T11:57:24.718Z,984.78
2019-06-20T11:58:24.708Z,984.73
2019-06-20T11:59:24.696Z,984.72
2019-06-20T12:00:24.708Z,984.77
2019-06-20T12:01:32.495Z,984.76
2019-06-20T12:02:25.663Z,984.75
2019-06-20T12:03:24.654Z,984.69
2019-06-20T12:04:24.651Z,984.66
2019-06-20T12:05:24.677Z,984.68
2019-06-20T12:06:24.626Z,984.65
2019-06-20T12:07:24.616Z,984.70
2019-06-20T12:08:24.603Z,984.67
2019-06-20T12:09:24.594Z,984.70
2019-06-20T12:10:24.606Z,984.67
2019-06-20T12:11:24.572Z,984.66
2019-06-20T12:12:24.561Z,984.62
2019-06-20T12:13:24.551Z,984.61
2019-06-20T12:14:24.539Z,984.65
2019-06-20T12:15:24.558Z,984.64
2019-06-20T12:16:24.518Z,984.65
2019-06-20T12:17:24.513Z,984.67
2019-06-20T12:18:24.497Z,984.68
2019-06-20T12:19:24.492Z,984.67
2019-06-20T12:20:24.500Z,984.68
2019-06-20T12:21:24.465Z,984.70
2019-06-20T12:22:24.459Z,984.68
2019-06-20T12:23:24.445Z,984.67
2019-06-20T12:24:24.433Z,984.65
2019-06-20T12:25:24.446Z,984.68
2019-06-20T12:26:24.414Z,984.64
2019-06-20T12:27:24.408Z,984.64
2019-06-20T12:28:24.393Z,984.66